Hanjin Buchanan — 3FHB4 — position and weather

sailwx.info

Track history (hours):
 
Tides and Currents Weather Stations Pressure Air Temp Water Temp Dewpoint Dewpoint Depression Visibility Wind Speed Wind Dir Waves Ship Positions

Hanjin Buchanan

Last reported at 2014-Aug-31 06:25 UTC. Time now 2014-Sep-22 16:11 UTC.
Position N 50°01' W 010°23'.
Warning: this ship's position is 22 days out of date.

Length 255 m; draft 8.7 m.

Type: Cargo ship. MMSI: 357568000.

Date/timePositionNaut miles runAvg speedWind from/ knotsBaromVisibWave heightAir tempDewpointWater temp
2014-Aug-31 06:25N 50°01' W 010°23'1111.8
2014-Aug-31 05:31N 50°00' W 010°06'1211.5
2014-Aug-31 04:28N 49°59' W 009°48'5111.5
2014-Aug-31 00:05N 49°52' W 008°30'32411.0
2014-Aug-29 18:29N 50°30' W 000°08'1212.1
2014-Aug-29 17:31N 50°33' E 000°10'1212.0
2014-Aug-29 16:34N 50°37' E 000°27'1111.3
2014-Aug-29 15:34N 50°41' E 000°44'1110.6
2014-Aug-29 14:33N 50°48' E 000°57'13 9.5
2014-Aug-29 13:11N 50°57' E 001°12'6 9.0
2014-Aug-29 12:32N 51°00' E 001°19'9 9.6
2014-Aug-29 11:33N 51°04' E 001°33'1111.4
2014-Aug-29 10:34N 51°02' E 001°51'1513.1
2014-Aug-29 09:26N 51°04' E 002°14'4 4.2
2014-Aug-29 08:28N 51°03' E 002°20'1 0.5
2014-Aug-29 07:19N 51°03' E 002°19'0 0.0
2014-Aug-29 04:31N 51°03' E 002°19'0 0.0
2014-Aug-29 03:24N 51°03' E 002°19'0 0.0
2014-Aug-29 01:22N 51°03' E 002°19'0 0.0
2014-Aug-29 00:19N 51°03' E 002°19'0 0.0
2014-Aug-28 22:31N 51°03' E 002°19'0 0.0
2014-Aug-28 21:31N 51°03' E 002°19'0 0.0
2014-Aug-28 20:22N 51°03' E 002°19'0 0.0
2014-Aug-28 19:31N 51°03' E 002°19'0 0.0
2014-Aug-28 18:29N 51°03' E 002°19'0 0.0
2014-Aug-28 17:31N 51°03' E 002°19'0 0.0
2014-Aug-28 16:10N 51°03' E 002°19'0 0.0
2014-Aug-28 15:31N 51°03' E 002°19'0 0.0
2014-Aug-28 14:28N 51°03' E 002°19'0 0.0
2014-Aug-28 12:28N 51°03' E 002°19'0 0.0
2014-Aug-28 10:22N 51°03' E 002°19'0 0.0
2014-Aug-28 08:22N 51°03' E 002°19'0 0.0
2014-Aug-28 07:16N 51°03' E 002°19'0 0.0
2014-Aug-28 06:25N 51°03' E 002°19'0 0.0
2014-Aug-28 05:10N 51°03' E 002°19'0 0.0
2014-Aug-28 03:04N 51°03' E 002°19'0 0.0
2014-Aug-28 02:16N 51°03' E 002°19'0 0.0
2014-Aug-28 00:13N 51°03' E 002°19'0 0.0
2014-Aug-27 22:19N 51°03' E 002°19'0 0.0
2014-Aug-27 21:28N 51°03' E 002°19'0 0.0
2014-Aug-27 20:25N 51°03' E 002°19'0 0.0
2014-Aug-27 19:28N 51°03' E 002°19'0 0.0
2014-Aug-27 18:31N 51°03' E 002°19'0 0.0
2014-Aug-27 17:28N 51°03' E 002°19'0 0.0
2014-Aug-27 16:30N 51°03' E 002°19'0 0.0
2014-Aug-27 15:31N 51°03' E 002°19'0 0.0
2014-Aug-27 14:28N 51°03' E 002°19'0 0.0
2014-Aug-27 13:28N 51°03' E 002°19'0 0.0
2014-Aug-27 12:31N 51°03' E 002°19'0 0.0
2014-Aug-27 11:31N 51°03' E 002°19'0 0.0
2014-Aug-27 10:19N 51°03' E 002°19'0 0.0
2014-Aug-27 09:22N 51°03' E 002°19'0 0.0
2014-Aug-27 08:19N 51°03' E 002°19'0 0.0
2014-Aug-27 06:13N 51°03' E 002°19'0 0.0
2014-Aug-27 05:31N 51°03' E 002°19'0 0.0
2014-Aug-27 04:31N 51°03' E 002°19'0 0.0
2014-Aug-27 03:19N 51°03' E 002°19'0 0.0
2014-Aug-27 02:25N 51°03' E 002°19'0 0.0
2014-Aug-27 00:22N 51°03' E 002°19'0 0.0
2014-Aug-26 23:31N 51°03' E 002°20'0 0.0
2014-Aug-26 21:31N 51°03' E 002°19'0 0.0
2014-Aug-26 20:04N 51°03' E 002°19'0 0.0
2014-Aug-26 19:16N 51°03' E 002°19'0 0.0
2014-Aug-26 18:31N 51°03' E 002°19'0 0.0
2014-Aug-26 17:16N 51°03' E 002°19'0 0.0
2014-Aug-26 16:31N 51°03' E 002°19'1 0.6
2014-Aug-26 15:26N 51°03' E 002°21'0 0.4
2014-Aug-26 14:32N 51°03' E 002°21'6 5.7
2014-Aug-26 13:34N 51°03' E 002°12'10 8.9
2014-Aug-26 12:26N 51°02' E 001°56'6 6.8
2014-Aug-26 11:33N 51°04' E 001°47'0 0.2
2014-Aug-26 10:31N 51°03' E 001°47'0 0.3
2014-Aug-26 09:31N 51°03' E 001°47'0 0.0
2014-Aug-26 08:31N 51°03' E 001°47'0 0.0
2014-Aug-26 07:31N 51°03' E 001°47'0 0.0
2014-Aug-26 06:31N 51°03' E 001°47'0 0.0
2014-Aug-26 05:28N 51°03' E 001°47'0 0.3
2014-Aug-26 04:28N 51°03' E 001°47'0 0.1
2014-Aug-26 03:31N 51°03' E 001°47'0 0.0
2014-Aug-26 02:31N 51°03' E 001°47'0 0.0
2014-Aug-26 01:25N 51°03' E 001°47'0 0.1
2014-Aug-26 00:28N 51°03' E 001°47'0 0.0
2014-Aug-25 23:31N 51°03' E 001°47'0 0.0
2014-Aug-25 22:31N 51°03' E 001°47'0 0.0
2014-Aug-25 21:28N 51°03' E 001°47'0 0.3
2014-Aug-25 20:28N 51°03' E 001°47'0 0.0
2014-Aug-25 19:16N 51°03' E 001°47'0 0.0
2014-Aug-25 18:25N 51°03' E 001°47'0 0.0
2014-Aug-25 17:31N 51°03' E 001°47'0 0.2
2014-Aug-25 16:28N 51°03' E 001°47'0 0.2
2014-Aug-25 15:31N 51°03' E 001°47'0 0.0
2014-Aug-25 14:22N 51°03' E 001°47'0 0.0
2014-Aug-25 13:31N 51°03' E 001°47'0 0.0
2014-Aug-25 12:31N 51°03' E 001°47'0 0.0
2014-Aug-25 11:31N 51°03' E 001°47'0 0.0
2014-Aug-25 10:28N 51°03' E 001°47'0 0.2
2014-Aug-25 09:16N 51°03' E 001°47'0 0.0
2014-Aug-25 07:31N 51°03' E 001°47'0 0.0
2014-Aug-25 05:25N 51°03' E 001°47'0 0.0
2014-Aug-25 04:28N 51°03' E 001°47'0 0.2
2014-Aug-25 03:28N 51°03' E 001°47'0 0.1
2014-Aug-25 02:31N 51°03' E 001°47'0 0.0
2014-Aug-25 01:31N 51°03' E 001°47'0 0.0
2014-Aug-25 00:31N 51°03' E 001°47'0 0.0
2014-Aug-24 23:28N 51°03' E 001°47'0 0.0
2014-Aug-24 22:31N 51°03' E 001°47'0 0.1
2014-Aug-24 21:31N 51°03' E 001°47'0 0.3
2014-Aug-24 20:28N 51°03' E 001°47'0 0.0
2014-Aug-24 19:16N 51°03' E 001°47'0 0.0
2014-Aug-24 18:31N 51°03' E 001°47'0 0.0
2014-Aug-24 17:31N 51°03' E 001°47'0 0.0
2014-Aug-24 16:31N 51°03' E 001°47'0 0.3
2014-Aug-24 15:28N 51°03' E 001°47'0 0.0
2014-Aug-24 14:28N 51°03' E 001°47'0 0.0
2014-Aug-24 13:31N 51°03' E 001°47'0 0.0
2014-Aug-24 12:22N 51°03' E 001°47'0 0.0
2014-Aug-24 11:31N 51°03' E 001°47'0 0.0
2014-Aug-24 10:31N 51°03' E 001°47'0 0.1
2014-Aug-24 09:28N 51°03' E 001°47'0 0.3
2014-Aug-24 08:31N 51°03' E 001°47'0 0.0
2014-Aug-24 07:13N 51°03' E 001°47'0 0.0
2014-Aug-24 06:28N 51°03' E 001°47'0 0.0
2014-Aug-24 05:25N 51°03' E 001°47'0 0.0
2014-Aug-24 04:19N 51°03' E 001°47'0 0.1
2014-Aug-24 03:31N 51°03' E 001°47'0 0.2
2014-Aug-24 02:28N 51°03' E 001°47'0 0.1
2014-Aug-24 01:31N 51°03' E 001°47'0 0.0
2014-Aug-24 00:31N 51°03' E 001°47'0 0.0
2014-Aug-23 23:31N 51°03' E 001°47'0 0.0
2014-Aug-23 22:28N 51°03' E 001°47'0 0.0
2014-Aug-23 21:31N 51°03' E 001°47'0 0.1
2014-Aug-23 20:31N 51°03' E 001°47'0 0.3
2014-Aug-23 19:31N 51°03' E 001°47'47 2.7
2014-Aug-23 02:16N 50°29' E 000°55'810.2
2014-Aug-23 01:31N 50°27' E 000°43'1010.3
2014-Aug-23 00:33N 50°25' E 000°28'  
Track history (hours):
 
Tides and Currents Weather Stations Pressure Air Temp Water Temp Dewpoint Dewpoint Depression Visibility Wind Speed Wind Dir Waves Ship Positions

Hanjin Buchanan

Last reported at 2014-Aug-31 06:25 UTC. Time now 2014-Sep-22 16:11 UTC.
Position N 50°01' W 010°23'.
Warning: this ship's position is 22 days out of date.

Length 255 m; draft 8.7 m.

Type: Cargo ship. MMSI: 357568000.

Date/timePositionNaut miles runAvg speedWind from/ knotsBaromVisibWave heightAir tempDewpointWater temp
2014-Aug-31 06:25N 50°01' W 010°23'1111.8
2014-Aug-31 05:31N 50°00' W 010°06'1211.5
2014-Aug-31 04:28N 49°59' W 009°48'5111.5
2014-Aug-31 00:05N 49°52' W 008°30'32411.0
2014-Aug-29 18:29N 50°30' W 000°08'1212.1
2014-Aug-29 17:31N 50°33' E 000°10'1212.0
2014-Aug-29 16:34N 50°37' E 000°27'1111.3
2014-Aug-29 15:34N 50°41' E 000°44'1110.6
2014-Aug-29 14:33N 50°48' E 000°57'13 9.5
2014-Aug-29 13:11N 50°57' E 001°12'6 9.0
2014-Aug-29 12:32N 51°00' E 001°19'9 9.6
2014-Aug-29 11:33N 51°04' E 001°33'1111.4
2014-Aug-29 10:34N 51°02' E 001°51'1513.1
2014-Aug-29 09:26N 51°04' E 002°14'4 4.2
2014-Aug-29 08:28N 51°03' E 002°20'1 0.5
2014-Aug-29 07:19N 51°03' E 002°19'0 0.0
2014-Aug-29 04:31N 51°03' E 002°19'0 0.0
2014-Aug-29 03:24N 51°03' E 002°19'0 0.0
2014-Aug-29 01:22N 51°03' E 002°19'0 0.0
2014-Aug-29 00:19N 51°03' E 002°19'0 0.0
2014-Aug-28 22:31N 51°03' E 002°19'0 0.0
2014-Aug-28 21:31N 51°03' E 002°19'0 0.0
2014-Aug-28 20:22N 51°03' E 002°19'0 0.0
2014-Aug-28 19:31N 51°03' E 002°19'0 0.0
2014-Aug-28 18:29N 51°03' E 002°19'0 0.0
2014-Aug-28 17:31N 51°03' E 002°19'0 0.0
2014-Aug-28 16:10N 51°03' E 002°19'0 0.0
2014-Aug-28 15:31N 51°03' E 002°19'0 0.0
2014-Aug-28 14:28N 51°03' E 002°19'0 0.0
2014-Aug-28 12:28N 51°03' E 002°19'0 0.0
2014-Aug-28 10:22N 51°03' E 002°19'0 0.0
2014-Aug-28 08:22N 51°03' E 002°19'0 0.0
2014-Aug-28 07:16N 51°03' E 002°19'0 0.0
2014-Aug-28 06:25N 51°03' E 002°19'0 0.0
2014-Aug-28 05:10N 51°03' E 002°19'0 0.0
2014-Aug-28 03:04N 51°03' E 002°19'0 0.0
2014-Aug-28 02:16N 51°03' E 002°19'0 0.0
2014-Aug-28 00:13N 51°03' E 002°19'0 0.0
2014-Aug-27 22:19N 51°03' E 002°19'0 0.0
2014-Aug-27 21:28N 51°03' E 002°19'0 0.0
2014-Aug-27 20:25N 51°03' E 002°19'0 0.0
2014-Aug-27 19:28N 51°03' E 002°19'0 0.0
2014-Aug-27 18:31N 51°03' E 002°19'0 0.0
2014-Aug-27 17:28N 51°03' E 002°19'0 0.0
2014-Aug-27 16:30N 51°03' E 002°19'0 0.0
2014-Aug-27 15:31N 51°03' E 002°19'0 0.0
2014-Aug-27 14:28N 51°03' E 002°19'0 0.0
2014-Aug-27 13:28N 51°03' E 002°19'0 0.0
2014-Aug-27 12:31N 51°03' E 002°19'0 0.0
2014-Aug-27 11:31N 51°03' E 002°19'0 0.0
2014-Aug-27 10:19N 51°03' E 002°19'0 0.0
2014-Aug-27 09:22N 51°03' E 002°19'0 0.0
2014-Aug-27 08:19N 51°03' E 002°19'0 0.0
2014-Aug-27 06:13N 51°03' E 002°19'0 0.0
2014-Aug-27 05:31N 51°03' E 002°19'0 0.0
2014-Aug-27 04:31N 51°03' E 002°19'0 0.0
2014-Aug-27 03:19N 51°03' E 002°19'0 0.0
2014-Aug-27 02:25N 51°03' E 002°19'0 0.0
2014-Aug-27 00:22N 51°03' E 002°19'0 0.0
2014-Aug-26 23:31N 51°03' E 002°20'0 0.0
2014-Aug-26 21:31N 51°03' E 002°19'0 0.0
2014-Aug-26 20:04N 51°03' E 002°19'0 0.0
2014-Aug-26 19:16N 51°03' E 002°19'0 0.0
2014-Aug-26 18:31N 51°03' E 002°19'0 0.0
2014-Aug-26 17:16N 51°03' E 002°19'0 0.0
2014-Aug-26 16:31N 51°03' E 002°19'1 0.6
2014-Aug-26 15:26N 51°03' E 002°21'0 0.4
2014-Aug-26 14:32N 51°03' E 002°21'6 5.7
2014-Aug-26 13:34N 51°03' E 002°12'10 8.9
2014-Aug-26 12:26N 51°02' E 001°56'6 6.8
2014-Aug-26 11:33N 51°04' E 001°47'0 0.2
2014-Aug-26 10:31N 51°03' E 001°47'0 0.3
2014-Aug-26 09:31N 51°03' E 001°47'0 0.0
2014-Aug-26 08:31N 51°03' E 001°47'0 0.0
2014-Aug-26 07:31N 51°03' E 001°47'0 0.0
2014-Aug-26 06:31N 51°03' E 001°47'0 0.0
2014-Aug-26 05:28N 51°03' E 001°47'0 0.3
2014-Aug-26 04:28N 51°03' E 001°47'0 0.1
2014-Aug-26 03:31N 51°03' E 001°47'0 0.0
2014-Aug-26 02:31N 51°03' E 001°47'0 0.0
2014-Aug-26 01:25N 51°03' E 001°47'0 0.1
2014-Aug-26 00:28N 51°03' E 001°47'0 0.0
2014-Aug-25 23:31N 51°03' E 001°47'0 0.0
2014-Aug-25 22:31N 51°03' E 001°47'0 0.0
2014-Aug-25 21:28N 51°03' E 001°47'0 0.3
2014-Aug-25 20:28N 51°03' E 001°47'0 0.0
2014-Aug-25 19:16N 51°03' E 001°47'0 0.0
2014-Aug-25 18:25N 51°03' E 001°47'0 0.0
2014-Aug-25 17:31N 51°03' E 001°47'0 0.2
2014-Aug-25 16:28N 51°03' E 001°47'0 0.2
2014-Aug-25 15:31N 51°03' E 001°47'0 0.0
2014-Aug-25 14:22N 51°03' E 001°47'0 0.0
2014-Aug-25 13:31N 51°03' E 001°47'0 0.0
2014-Aug-25 12:31N 51°03' E 001°47'0 0.0
2014-Aug-25 11:31N 51°03' E 001°47'0 0.0
2014-Aug-25 10:28N 51°03' E 001°47'0 0.2
2014-Aug-25 09:16N 51°03' E 001°47'0 0.0
2014-Aug-25 07:31N 51°03' E 001°47'0 0.0
2014-Aug-25 05:25N 51°03' E 001°47'0 0.0
2014-Aug-25 04:28N 51°03' E 001°47'0 0.2
2014-Aug-25 03:28N 51°03' E 001°47'0 0.1
2014-Aug-25 02:31N 51°03' E 001°47'0 0.0
2014-Aug-25 01:31N 51°03' E 001°47'0 0.0
2014-Aug-25 00:31N 51°03' E 001°47'0 0.0
2014-Aug-24 23:28N 51°03' E 001°47'0 0.0
2014-Aug-24 22:31N 51°03' E 001°47'0 0.1
2014-Aug-24 21:31N 51°03' E 001°47'0 0.3
2014-Aug-24 20:28N 51°03' E 001°47'0 0.0
2014-Aug-24 19:16N 51°03' E 001°47'0 0.0
2014-Aug-24 18:31N 51°03' E 001°47'0 0.0
2014-Aug-24 17:31N 51°03' E 001°47'0 0.0
2014-Aug-24 16:31N 51°03' E 001°47'0 0.3
2014-Aug-24 15:28N 51°03' E 001°47'0 0.0
2014-Aug-24 14:28N 51°03' E 001°47'0 0.0
2014-Aug-24 13:31N 51°03' E 001°47'0 0.0
2014-Aug-24 12:22N 51°03' E 001°47'0 0.0
2014-Aug-24 11:31N 51°03' E 001°47'0 0.0
2014-Aug-24 10:31N 51°03' E 001°47'0 0.1
2014-Aug-24 09:28N 51°03' E 001°47'0 0.3
2014-Aug-24 08:31N 51°03' E 001°47'0 0.0
2014-Aug-24 07:13N 51°03' E 001°47'0 0.0
2014-Aug-24 06:28N 51°03' E 001°47'0 0.0
2014-Aug-24 05:25N 51°03' E 001°47'0 0.0
2014-Aug-24 04:19N 51°03' E 001°47'0 0.1
2014-Aug-24 03:31N 51°03' E 001°47'0 0.2
2014-Aug-24 02:28N 51°03' E 001°47'0 0.1
2014-Aug-24 01:31N 51°03' E 001°47'0 0.0
2014-Aug-24 00:31N 51°03' E 001°47'0 0.0
2014-Aug-23 23:31N 51°03' E 001°47'0 0.0
2014-Aug-23 22:28N 51°03' E 001°47'0 0.0
2014-Aug-23 21:31N 51°03' E 001°47'0 0.1
2014-Aug-23 20:31N 51°03' E 001°47'0 0.3
2014-Aug-23 19:31N 51°03' E 001°47'47 2.7
2014-Aug-23 02:16N 50°29' E 000°55'810.2
2014-Aug-23 01:31N 50°27' E 000°43'1010.3
2014-Aug-23 00:33N 50°25' E 000°28'  

Dump ship's entire track history